Time;durP1;ratioP1;P1;durP2;ratioP2;P2;SDS_P1;SDS_P2;PMS_P1;PMS_P2;Temp;Humidity;BMP_temperature;BMP_pressure;BME280_temperature;BME280_humidity;BME280_pressure;Samples;Min_cycle;Max_cycle;Signal;HPM_P1;HPM_P2
2023/10/24 00:00:15;;;;;;;;;;;17.00;99.90;;;;;;5036928;28;20466;-66
2023/10/24 00:02:41;;;;;;;;;;;16.90;99.90;;;;;;5036847;28;20014;-66
2023/10/24 00:05:07;;;;;;;;;;;16.80;99.90;;;;;;5036944;28;20092;-65
2023/10/24 00:07:33;;;;;;;;;;;16.80;99.90;;;;;;5036955;28;20081;-63
2023/10/24 00:09:58;;;;;;;;;;;16.80;99.90;;;;;;5036935;28;20013;-64
2023/10/24 00:12:24;;;;;;;;;;;16.80;99.90;;;;;;5036839;28;19987;-62
2023/10/24 00:14:49;;;;;;;;;;;16.80;99.90;;;;;;5036911;28;20022;-60
2023/10/24 00:17:15;;;;;;;;;;;16.80;99.90;;;;;;5036887;28;20425;-64
2023/10/24 00:19:40;;;;;;;;;;;16.80;99.90;;;;;;5036646;28;20018;-61
2023/10/24 00:22:06;;;;;;;;;;;16.80;99.90;;;;;;5036594;28;20010;-61
2023/10/24 00:24:31;;;;;;;;;;;16.80;99.60;;;;;;5036268;28;19998;-59
2023/10/24 00:26:57;;;;;;;;;;;16.70;99.70;;;;;;5036612;28;19982;-61
2023/10/24 00:29:23;;;;;;;;;;;16.70;99.60;;;;;;5036727;28;19986;-61
2023/10/24 00:31:49;;;;;;;;;;;16.60;99.90;;;;;;5036481;28;19986;-64
2023/10/24 00:34:14;;;;;;;;;;;16.50;99.90;;;;;;5036693;28;20291;-61
2023/10/24 00:36:41;;;;;;;;;;;16.40;99.90;;;;;;5036453;28;20014;-61
2023/10/24 00:39:08;;;;;;;;;;;16.40;99.90;;;;;;5036202;28;20109;-59
2023/10/24 00:41:33;;;;;;;;;;;16.40;99.90;;;;;;5036423;28;20010;-59
2023/10/24 00:43:59;;;;;;;;;;;16.40;99.90;;;;;;5036329;28;20352;-63
2023/10/24 00:46:25;;;;;;;;;;;16.40;99.90;;;;;;5036314;28;20044;-62
2023/10/24 00:48:50;;;;;;;;;;;16.30;99.90;;;;;;5036144;28;19982;-60
2023/10/24 00:51:16;;;;;;;;;;;16.30;99.90;;;;;;5035066;28;19986;-61
2023/10/24 00:53:42;;;;;;;;;;;16.20;99.90;;;;;;5035983;28;20465;-60
2023/10/24 00:56:08;;;;;;;;;;;16.10;99.90;;;;;;5035997;28;19993;-61
2023/10/24 00:58:35;;;;;;;;;;;16.10;99.90;;;;;;5036252;28;20390;-63
2023/10/24 01:01:01;;;;;;;;;;;16.10;99.90;;;;;;5036031;28;20036;-66
2023/10/24 01:03:27;;;;;;;;;;;16.10;99.90;;;;;;5035681;28;20053;-66
2023/10/24 01:05:53;;;;;;;;;;;16.10;99.90;;;;;;5035831;28;19986;-61
2023/10/24 01:08:19;;;;;;;;;;;16.10;99.90;;;;;;5035868;28;19986;-60
2023/10/24 01:10:44;;;;;;;;;;;16.20;99.90;;;;;;5035688;28;19992;-64
2023/10/24 01:13:10;;;;;;;;;;;16.20;99.90;;;;;;5035703;28;19982;-62
2023/10/24 01:15:35;;;;;;;;;;;16.20;99.90;;;;;;5035927;28;19986;-62
2023/10/24 01:18:02;;;;;;;;;;;16.20;99.90;;;;;;5035654;28;20329;-62
2023/10/24 01:20:28;;;;;;;;;;;16.20;99.90;;;;;;5035408;28;20369;-64
2023/10/24 01:22:54;;;;;;;;;;;16.10;99.90;;;;;;5035209;28;20032;-65
2023/10/24 01:25:19;;;;;;;;;;;16.10;99.90;;;;;;5035796;28;20348;-63
2023/10/24 01:27:45;;;;;;;;;;;16.10;99.90;;;;;;5035390;28;20345;-63
2023/10/24 01:30:12;;;;;;;;;;;16.10;99.90;;;;;;5035473;28;19986;-62
2023/10/24 01:32:37;;;;;;;;;;;16.10;99.90;;;;;;5035341;28;19994;-62
2023/10/24 01:35:03;;;;;;;;;;;16.10;99.90;;;;;;5035507;28;19986;-62
2023/10/24 01:37:29;;;;;;;;;;;16.00;99.90;;;;;;5035151;28;19989;-61
2023/10/24 01:39:54;;;;;;;;;;;15.90;99.90;;;;;;5035502;28;19998;-58
2023/10/24 01:42:20;;;;;;;;;;;15.90;99.90;;;;;;5035050;28;20006;-61
2023/10/24 01:44:46;;;;;;;;;;;15.80;99.90;;;;;;5035159;28;19986;-63
2023/10/24 01:47:11;;;;;;;;;;;15.90;99.90;;;;;;5035090;28;19992;-61
2023/10/24 01:49:37;;;;;;;;;;;15.90;99.90;;;;;;5035105;28;20085;-60
2023/10/24 01:52:02;;;;;;;;;;;16.00;99.90;;;;;;5034761;28;19989;-59
2023/10/24 01:54:28;;;;;;;;;;;16.00;99.90;;;;;;5035038;28;19982;-60
2023/10/24 01:56:53;;;;;;;;;;;16.00;99.90;;;;;;5034934;28;20356;-64
2023/10/24 01:59:19;;;;;;;;;;;16.00;99.90;;;;;;5034734;28;19986;-58
2023/10/24 02:01:44;;;;;;;;;;;16.00;99.90;;;;;;5034481;28;20028;-58
2023/10/24 02:04:10;;;;;;;;;;;16.00;99.90;;;;;;5034850;28;20440;-59
2023/10/24 02:06:35;;;;;;;;;;;15.90;99.90;;;;;;5034459;28;20496;-62
2023/10/24 02:09:02;;;;;;;;;;;15.90;99.90;;;;;;5034692;28;19989;-59
2023/10/24 02:11:27;;;;;;;;;;;15.90;99.90;;;;;;5034606;28;20040;-62
2023/10/24 02:13:53;;;;;;;;;;;15.90;99.90;;;;;;5034436;28;19982;-62
2023/10/24 02:16:18;;;;;;;;;;;16.00;99.90;;;;;;5034457;28;19986;-60
2023/10/24 02:18:44;;;;;;;;;;;15.90;99.90;;;;;;5034410;28;19988;-62
2023/10/24 02:21:09;;;;;;;;;;;15.90;99.90;;;;;;5034294;28;20073;-63
2023/10/24 02:23:37;;;;;;;;;;;15.80;99.90;;;;;;5034147;28;20072;-60
2023/10/24 02:26:03;;;;;;;;;;;15.90;99.90;;;;;;5034367;28;19982;-64
2023/10/24 02:28:28;;;;;;;;;;;15.90;99.90;;;;;;5034290;28;20398;-64
2023/10/24 02:30:54;;;;;;;;;;;15.90;99.90;;;;;;5034172;28;20029;-61
2023/10/24 02:33:19;;;;;;;;;;;15.80;99.90;;;;;;5034308;28;20028;-59
2023/10/24 02:35:45;;;;;;;;;;;15.80;99.90;;;;;;5033999;28;19982;-60
2023/10/24 02:38:10;;;;;;;;;;;15.80;99.90;;;;;;5034052;28;19986;-62
2023/10/24 02:40:36;;;;;;;;;;;15.80;99.90;;;;;;5034387;28;20203;-59
2023/10/24 02:43:01;;;;;;;;;;;15.70;99.90;;;;;;5034036;28;20013;-61
2023/10/24 02:45:27;;;;;;;;;;;15.60;99.90;;;;;;5034014;28;20486;-58
2023/10/24 02:47:53;;;;;;;;;;;15.60;99.90;;;;;;5033936;28;20029;-59
2023/10/24 02:50:18;;;;;;;;;;;15.60;99.90;;;;;;5033634;28;19993;-60
2023/10/24 02:52:44;;;;;;;;;;;15.50;99.90;;;;;;5033886;28;19989;-59
2023/10/24 02:55:10;;;;;;;;;;;15.50;99.90;;;;;;5033796;28;19982;-62
2023/10/24 02:57:35;;;;;;;;;;;15.50;99.90;;;;;;5033809;28;20349;-59
2023/10/24 03:00:01;;;;;;;;;;;15.50;99.90;;;;;;5033848;28;19982;-63
2023/10/24 03:02:26;;;;;;;;;;;15.50;99.90;;;;;;5033882;28;20014;-66
2023/10/24 03:04:52;;;;;;;;;;;15.50;99.90;;;;;;5033684;28;20025;-63
2023/10/24 03:07:17;;;;;;;;;;;15.40;99.90;;;;;;5033729;28;20384;-64
2023/10/24 03:09:43;;;;;;;;;;;15.40;99.90;;;;;;5033550;28;20483;-64
2023/10/24 03:12:09;;;;;;;;;;;15.40;99.90;;;;;;5033624;28;20355;-62
2023/10/24 03:14:35;;;;;;;;;;;15.40;99.90;;;;;;5033004;28;19988;-63
2023/10/24 03:17:01;;;;;;;;;;;15.40;99.90;;;;;;5033858;28;19986;-66
2023/10/24 03:19:27;;;;;;;;;;;15.40;99.90;;;;;;5033104;28;20026;-64
2023/10/24 03:21:53;;;;;;;;;;;15.40;99.90;;;;;;5033513;28;20379;-62
2023/10/24 03:24:18;;;;;;;;;;;15.30;99.90;;;;;;5033672;28;20108;-59
2023/10/24 03:26:44;;;;;;;;;;;15.20;99.90;;;;;;5033453;28;20429;-61
2023/10/24 03:29:09;;;;;;;;;;;15.30;99.90;;;;;;5033413;28;20109;-61
2023/10/24 03:31:38;;;;;;;;;;;15.20;99.90;;;;;;5033585;28;19986;-59
2023/10/24 03:34:04;;;;;;;;;;;15.20;99.90;;;;;;5033184;28;19989;-61
2023/10/24 03:36:29;;;;;;;;;;;15.30;99.90;;;;;;5033470;28;19982;-60
2023/10/24 03:38:55;;;;;;;;;;;15.20;99.90;;;;;;5033626;28;19990;-60
2023/10/24 03:41:20;;;;;;;;;;;15.20;99.90;;;;;;5033252;28;19982;-62
2023/10/24 03:43:49;;;;;;;;;;;15.20;99.90;;;;;;5033534;28;19981;-60
2023/10/24 03:46:14;;;;;;;;;;;15.10;99.90;;;;;;5033450;28;20452;-61
2023/10/24 03:48:40;;;;;;;;;;;15.10;99.90;;;;;;5033114;28;19989;-62
2023/10/24 03:51:06;;;;;;;;;;;15.10;99.90;;;;;;5033567;28;20012;-61
2023/10/24 03:53:31;;;;;;;;;;;15.20;99.90;;;;;;5033175;28;19997;-61
2023/10/24 03:55:58;;;;;;;;;;;15.20;99.90;;;;;;5033212;28;19993;-61
2023/10/24 03:58:24;;;;;;;;;;;15.10;99.90;;;;;;5033493;28;20448;-61
2023/10/24 04:00:50;;;;;;;;;;;15.10;99.90;;;;;;5033113;28;19982;-66
2023/10/24 04:03:15;;;;;;;;;;;15.10;99.90;;;;;;5032886;28;20010;-62
2023/10/24 04:05:41;;;;;;;;;;;15.10;99.90;;;;;;5033307;28;20037;-66
2023/10/24 04:08:07;;;;;;;;;;;15.20;99.90;;;;;;5033255;28;19986;-65
2023/10/24 04:10:34;;;;;;;;;;;15.20;99.90;;;;;;5033246;28;19986;-66
2023/10/24 04:12:59;;;;;;;;;;;15.20;99.90;;;;;;5033035;28;19982;-66
2023/10/24 04:15:25;;;;;;;;;;;15.10;99.90;;;;;;5033365;28;20077;-66
2023/10/24 04:17:51;;;;;;;;;;;15.20;99.90;;;;;;5033090;28;19986;-66
2023/10/24 04:20:16;;;;;;;;;;;15.20;99.90;;;;;;5032781;28;20528;-63
2023/10/24 04:22:42;;;;;;;;;;;15.30;99.90;;;;;;5032978;28;20013;-63
2023/10/24 04:25:08;;;;;;;;;;;15.30;99.90;;;;;;5034852;28;20005;-62
2023/10/24 04:27:33;;;;;;;;;;;15.30;99.90;;;;;;5036688;28;20069;-64
2023/10/24 04:29:59;;;;;;;;;;;15.30;99.90;;;;;;5036492;28;20382;-65
2023/10/24 04:32:25;;;;;;;;;;;15.30;99.90;;;;;;5036347;28;19982;-65
2023/10/24 04:34:51;;;;;;;;;;;15.30;99.90;;;;;;5036498;28;20024;-63
2023/10/24 04:37:20;;;;;;;;;;;15.30;99.90;;;;;;5036605;28;20013;-64
2023/10/24 04:39:45;;;;;;;;;;;15.40;99.90;;;;;;5036319;28;20026;-62
2023/10/24 04:42:11;;;;;;;;;;;15.30;99.90;;;;;;5036236;28;20111;-63
2023/10/24 04:44:36;;;;;;;;;;;15.30;99.90;;;;;;5036107;28;19997;-59
2023/10/24 04:47:02;;;;;;;;;;;15.30;99.90;;;;;;5036078;28;19982;-64
2023/10/24 04:49:27;;;;;;;;;;;15.30;99.90;;;;;;5036163;28;20088;-60
2023/10/24 04:51:53;;;;;;;;;;;15.30;99.90;;;;;;5036121;28;19982;-62
2023/10/24 04:54:19;;;;;;;;;;;15.20;99.90;;;;;;5036388;28;19986;-65
2023/10/24 04:56:44;;;;;;;;;;;15.20;99.90;;;;;;5036081;28;20101;-62
2023/10/24 04:59:10;;;;;;;;;;;15.20;99.90;;;;;;5036222;28;19994;-65
2023/10/24 05:01:38;;;;;;;;;;;15.20;99.90;;;;;;5035766;28;20021;-66
2023/10/24 05:04:07;;;;;;;;;;;15.20;99.90;;;;;;5036003;28;19987;-63
2023/10/24 05:06:33;;;;;;;;;;;15.10;99.90;;;;;;5036102;28;20384;-65
2023/10/24 05:08:59;;;;;;;;;;;15.10;99.90;;;;;;5036018;28;20101;-62
2023/10/24 05:11:25;;;;;;;;;;;15.10;99.90;;;;;;5035789;28;19993;-63
2023/10/24 05:13:51;;;;;;;;;;;15.10;99.90;;;;;;5035717;28;19982;-62
2023/10/24 05:16:16;;;;;;;;;;;15.10;99.90;;;;;;5035360;28;19997;-63
2023/10/24 05:18:42;;;;;;;;;;;15.20;99.90;;;;;;5035572;28;20065;-62
2023/10/24 05:21:07;;;;;;;;;;;15.10;99.90;;;;;;5035683;28;20440;-65
2023/10/24 05:23:33;;;;;;;;;;;15.10;99.90;;;;;;5035354;28;20118;-62
2023/10/24 05:25:59;;;;;;;;;;;15.20;99.90;;;;;;5035510;28;19986;-61
2023/10/24 05:28:25;;;;;;;;;;;15.20;99.90;;;;;;5035495;28;19989;-65
2023/10/24 05:30:50;;;;;;;;;;;15.30;99.90;;;;;;5035117;28;19986;-62
2023/10/24 05:33:16;;;;;;;;;;;15.30;99.90;;;;;;5035522;28;20059;-62
2023/10/24 05:35:45;;;;;;;;;;;15.30;99.90;;;;;;5034697;28;20470;-61
2023/10/24 05:38:11;;;;;;;;;;;15.40;99.90;;;;;;5035115;28;20355;-62
2023/10/24 05:40:36;;;;;;;;;;;15.40;99.90;;;;;;5035322;28;19990;-62
2023/10/24 05:43:02;;;;;;;;;;;15.40;99.90;;;;;;5034839;28;20010;-63
2023/10/24 05:45:27;;;;;;;;;;;15.50;99.90;;;;;;5035037;28;19986;-63
2023/10/24 05:47:53;;;;;;;;;;;15.50;99.90;;;;;;5035048;28;19986;-62
2023/10/24 05:50:19;;;;;;;;;;;15.60;99.90;;;;;;5035100;28;20028;-64
2023/10/24 05:52:45;;;;;;;;;;;15.60;99.90;;;;;;5035128;28;19982;-62
2023/10/24 05:55:10;;;;;;;;;;;15.70;99.90;;;;;;5035127;28;19986;-64
2023/10/24 05:57:36;;;;;;;;;;;15.70;99.90;;;;;;5035018;28;20471;-61
2023/10/24 06:00:02;;;;;;;;;;;15.80;99.90;;;;;;5034920;28;20009;-63
2023/10/24 06:02:27;;;;;;;;;;;15.80;99.90;;;;;;5034637;28;20543;-63
2023/10/24 06:04:53;;;;;;;;;;;15.80;99.90;;;;;;5034916;28;19982;-60
2023/10/24 06:07:18;;;;;;;;;;;15.80;99.90;;;;;;5034812;28;20068;-60
2023/10/24 06:09:44;;;;;;;;;;;15.90;99.90;;;;;;5034610;28;19982;-64
2023/10/24 06:12:10;;;;;;;;;;;16.00;99.90;;;;;;5034660;28;19997;-62
2023/10/24 06:14:35;;;;;;;;;;;16.10;99.90;;;;;;5034804;28;20455;-61
2023/10/24 06:17:01;;;;;;;;;;;16.20;99.90;;;;;;5034459;28;20396;-63
2023/10/24 06:19:26;;;;;;;;;;;16.30;99.90;;;;;;5034292;28;20064;-62
2023/10/24 06:21:53;;;;;;;;;;;16.40;99.90;;;;;;5034434;28;20010;-62
2023/10/24 06:24:18;;;;;;;;;;;16.50;99.90;;;;;;5034618;28;20002;-66
2023/10/24 06:26:44;;;;;;;;;;;16.60;99.90;;;;;;5034139;28;20464;-62
2023/10/24 06:29:09;;;;;;;;;;;16.70;99.90;;;;;;5034557;28;20394;-63
2023/10/24 06:31:35;;;;;;;;;;;16.80;99.90;;;;;;5034312;28;20008;-62
2023/10/24 06:34:02;;;;;;;;;;;16.80;99.50;;;;;;5034149;28;19982;-65
2023/10/24 06:36:28;;;;;;;;;;;17.00;99.00;;;;;;5034471;28;20341;-66
2023/10/24 06:38:54;;;;;;;;;;;17.10;99.20;;;;;;5034213;28;19982;-62
2023/10/24 06:41:19;;;;;;;;;;;17.20;98.20;;;;;;5033863;28;20386;-65
2023/10/24 06:43:45;;;;;;;;;;;17.20;98.20;;;;;;5033964;28;20017;-61
2023/10/24 06:46:11;;;;;;;;;;;17.30;98.50;;;;;;5034190;28;20040;-64
2023/10/24 06:48:36;;;;;;;;;;;17.30;98.50;;;;;;5033015;28;19993;-64
2023/10/24 06:51:02;;;;;;;;;;;17.50;97.70;;;;;;5033865;28;20088;-62
2023/10/24 06:53:28;;;;;;;;;;;17.80;97.00;;;;;;5034401;28;19993;-63
2023/10/24 06:56:03;;;;;;;;;;;17.90;96.40;;;;;;5033676;28;20514;-63
2023/10/24 06:58:28;;;;;;;;;;;18.10;96.20;;;;;;5034124;28;19992;-62
2023/10/24 07:00:54;;;;;;;;;;;18.40;96.10;;;;;;5033767;28;19982;-63
2023/10/24 07:03:20;;;;;;;;;;;18.60;94.70;;;;;;5033693;28;20052;-65
2023/10/24 07:05:50;;;;;;;;;;;18.70;94.10;;;;;;5033959;28;20013;-62
2023/10/24 07:08:16;;;;;;;;;;;18.90;93.50;;;;;;5033774;28;19986;-63
2023/10/24 07:10:42;;;;;;;;;;;19.20;94.00;;;;;;5033741;28;20364;-61
2023/10/24 07:13:08;;;;;;;;;;;19.60;92.10;;;;;;5034230;28;19990;-60
2023/10/24 07:15:33;;;;;;;;;;;19.90;91.10;;;;;;5033563;28;20459;-64
2023/10/24 07:17:59;;;;;;;;;;;20.10;90.00;;;;;;5032684;28;20395;-63
2023/10/24 07:20:24;;;;;;;;;;;20.20;85.60;;;;;;5032881;28;20018;-62
2023/10/24 07:22:50;;;;;;;;;;;20.50;83.20;;;;;;5033465;28;20045;-63
2023/10/24 07:25:15;;;;;;;;;;;20.90;83.60;;;;;;5033534;28;20464;-66
2023/10/24 07:27:41;;;;;;;;;;;21.30;77.30;;;;;;5033471;28;19981;-66
2023/10/24 07:30:09;;;;;;;;;;;21.60;75.00;;;;;;5033479;28;20081;-62
2023/10/24 07:32:34;;;;;;;;;;;22.10;72.00;;;;;;5033582;28;19982;-64
2023/10/24 07:35:00;;;;;;;;;;;22.50;71.10;;;;;;5033573;28;20347;-59
2023/10/24 07:37:26;;;;;;;;;;;22.90;67.30;;;;;;5033711;28;19993;-60
2023/10/24 07:39:51;;;;;;;;;;;23.00;65.40;;;;;;5033497;28;20411;-64
2023/10/24 07:42:17;;;;;;;;;;;23.20;63.70;;;;;;5033239;28;20014;-60
2023/10/24 07:44:42;;;;;;;;;;;23.30;64.80;;;;;;5033307;28;19986;-61
2023/10/24 07:47:08;;;;;;;;;;;23.20;63.70;;;;;;5033267;28;19988;-61
2023/10/24 07:49:35;;;;;;;;;;;22.90;62.80;;;;;;5033334;28;19982;-65
2023/10/24 07:52:00;;;;;;;;;;;22.80;66.80;;;;;;5033163;28;20001;-62
2023/10/24 07:54:26;;;;;;;;;;;22.90;65.70;;;;;;5033043;28;19986;-63
2023/10/24 07:56:52;;;;;;;;;;;23.00;65.00;;;;;;5033207;28;19986;-63
2023/10/24 07:59:18;;;;;;;;;;;23.20;63.60;;;;;;5033923;28;19983;-60
2023/10/24 08:01:44;;;;;;;;;;;23.00;66.50;;;;;;5037034;28;20119;-65
2023/10/24 08:04:09;;;;;;;;;;;22.90;65.60;;;;;;5037119;28;19986;-60
2023/10/24 08:06:35;;;;;;;;;;;22.90;68.90;;;;;;5036914;28;19989;-62
2023/10/24 08:09:00;;;;;;;;;;;23.50;65.30;;;;;;5036985;28;19989;-62
2023/10/24 08:11:26;;;;;;;;;;;23.80;61.40;;;;;;5037068;28;19989;-64
2023/10/24 08:13:51;;;;;;;;;;;23.60;61.40;;;;;;5036868;28;20068;-64
2023/10/24 08:16:17;;;;;;;;;;;23.50;64.30;;;;;;5036791;28;19994;-67
2023/10/24 08:18:44;;;;;;;;;;;23.40;64.00;;;;;;5036708;28;19986;-65
2023/10/24 08:21:10;;;;;;;;;;;23.40;63.00;;;;;;5036814;28;19982;-62
2023/10/24 08:23:35;;;;;;;;;;;23.50;62.80;;;;;;5036267;28;20383;-65
2023/10/24 08:26:03;;;;;;;;;;;23.60;62.70;;;;;;5036800;28;20032;-65
2023/10/24 08:28:28;;;;;;;;;;;23.60;63.10;;;;;;5036707;28;19982;-61
2023/10/24 08:30:54;;;;;;;;;;;23.60;62.20;;;;;;5036785;28;20337;-59
2023/10/24 08:33:20;;;;;;;;;;;23.60;65.20;;;;;;5036649;28;19982;-58
2023/10/24 08:35:46;;;;;;;;;;;23.50;63.40;;;;;;5036520;28;20433;-61
2023/10/24 08:38:11;;;;;;;;;;;23.40;65.30;;;;;;5036377;28;19992;-63
2023/10/24 08:40:37;;;;;;;;;;;23.60;66.40;;;;;;5036701;28;20483;-61
2023/10/24 08:43:03;;;;;;;;;;;24.00;63.40;;;;;;5036149;28;20010;-58
2023/10/24 08:45:30;;;;;;;;;;;24.60;62.60;;;;;;5036504;28;19997;-61
2023/10/24 08:47:56;;;;;;;;;;;24.90;63.20;;;;;;5036358;28;19987;-62
2023/10/24 08:50:21;;;;;;;;;;;25.30;59.90;;;;;;5036256;28;19987;-58
2023/10/24 08:52:47;;;;;;;;;;;25.60;62.10;;;;;;5035896;28;19997;-62
2023/10/24 08:55:13;;;;;;;;;;;25.80;65.80;;;;;;5036341;28;19986;-64
2023/10/24 08:57:39;;;;;;;;;;;26.20;61.00;;;;;;5036056;28;20337;-65
2023/10/24 09:00:08;;;;;;;;;;;26.60;58.70;;;;;;5036096;28;19981;-63
2023/10/24 09:02:35;;;;;;;;;;;27.00;57.30;;;;;;5035756;28;20012;-63
2023/10/24 09:05:01;;;;;;;;;;;27.40;56.50;;;;;;5036046;28;19997;-61
2023/10/24 09:07:26;;;;;;;;;;;27.50;55.60;;;;;;5035911;28;20356;-62
2023/10/24 09:09:52;;;;;;;;;;;27.70;53.50;;;;;;5035970;28;20355;-58
2023/10/24 09:12:17;;;;;;;;;;;27.90;53.50;;;;;;5034880;28;20419;-63
2023/10/24 09:14:47;;;;;;;;;;;27.90;50.80;;;;;;5035749;28;20009;-61
2023/10/24 09:17:16;;;;;;;;;;;28.00;51.50;;;;;;5035688;28;19986;-62
2023/10/24 09:19:42;;;;;;;;;;;28.10;53.30;;;;;;5035527;28;20068;-65
2023/10/24 09:22:08;;;;;;;;;;;28.40;52.30;;;;;;5035302;28;20497;-61
2023/10/24 09:24:35;;;;;;;;;;;28.60;54.30;;;;;;5035482;28;20483;-60
2023/10/24 09:27:01;;;;;;;;;;;28.80;50.10;;;;;;5035811;28;19986;-62
2023/10/24 09:29:27;;;;;;;;;;;29.10;48.90;;;;;;5035771;28;20040;-63
2023/10/24 09:31:53;;;;;;;;;;;29.20;48.70;;;;;;5035508;28;20014;-63
2023/10/24 09:34:19;;;;;;;;;;;29.40;49.80;;;;;;5035391;28;19990;-62
2023/10/24 09:36:45;;;;;;;;;;;29.60;48.20;;;;;;5017356;28;20380;-62
2023/10/24 09:39:11;;;;;;;;;;;29.70;43.70;;;;;;5035057;28;19990;-61
2023/10/24 09:41:44;;;;;;;;;;;29.80;49.10;;;;;;5035265;28;19993;-62
2023/10/24 09:44:10;;;;;;;;;;;30.00;45.00;;;;;;5035139;28;19986;-62
2023/10/24 09:46:36;;;;;;;;;;;30.10;42.90;;;;;;5035168;28;19981;-64
2023/10/24 09:49:05;;;;;;;;;;;30.00;41.80;;;;;;5035035;28;20032;-60
2023/10/24 09:51:31;;;;;;;;;;;30.00;44.10;;;;;;5034875;28;19983;-60
2023/10/24 09:53:58;;;;;;;;;;;30.30;43.70;;;;;;5034930;28;19996;-59
2023/10/24 09:56:24;;;;;;;;;;;30.50;47.30;;;;;;5035092;28;20399;-63
2023/10/24 09:58:50;;;;;;;;;;;30.80;40.60;;;;;;5035057;28;19982;-62
2023/10/24 10:01:16;;;;;;;;;;;30.90;39.10;;;;;;5034732;28;20462;-63
2023/10/24 10:03:43;;;;;;;;;;;30.90;41.90;;;;;;5035181;28;20148;-60
2023/10/24 10:06:09;;;;;;;;;;;30.90;40.60;;;;;;5035181;28;20001;-60
2023/10/24 10:08:37;;;;;;;;;;;31.10;42.10;;;;;;5034675;28;20073;-62
2023/10/24 10:11:05;;;;;;;;;;;31.30;41.90;;;;;;5034970;28;19986;-61
2023/10/24 10:13:33;;;;;;;;;;;31.40;44.70;;;;;;5034977;28;19986;-63
2023/10/24 10:15:58;;;;;;;;;;;31.50;38.80;;;;;;5034436;28;20069;-61
2023/10/24 10:18:27;;;;;;;;;;;31.60;43.30;;;;;;5016802;28;20010;-57
2023/10/24 10:20:55;;;;;;;;;;;31.70;38.30;;;;;;5014583;28;19995;-63
2023/10/24 10:23:30;;;;;;;;;;;31.60;41.00;;;;;;5014295;28;20113;-60
2023/10/24 10:26:15;;;;;;;;;;;31.70;43.50;;;;;;5014798;28;20491;-61
2023/10/24 10:28:41;;;;;;;;;;;32.00;42.60;;;;;;5014554;28;20018;-63
2023/10/24 10:31:18;;;;;;;;;;;32.10;40.70;;;;;;5014832;28;19997;-64
2023/10/24 10:33:43;;;;;;;;;;;32.10;40.90;;;;;;5014579;28;20355;-64
2023/10/24 10:36:09;;;;;;;;;;;32.30;41.40;;;;;;5014298;28;19986;-63
2023/10/24 10:38:35;;;;;;;;;;;32.50;36.70;;;;;;5014575;28;19986;-62
2023/10/24 10:41:20;;;;;;;;;;;32.60;36.30;;;;;;5014430;28;19990;-62
2023/10/24 10:43:46;;;;;;;;;;;32.40;38.10;;;;;;5014541;28;20010;-62
2023/10/24 10:46:16;;;;;;;;;;;32.50;38.70;;;;;;5014305;28;20321;-63
2023/10/24 10:48:42;;;;;;;;;;;32.60;37.50;;;;;;5014024;28;19982;-65
2023/10/24 10:51:07;;;;;;;;;;;32.50;35.30;;;;;;5014818;28;20029;-63
2023/10/24 10:53:53;;;;;;;;;;;32.30;35.70;;;;;;5014246;28;20601;-63
2023/10/24 10:56:21;;;;;;;;;;;32.30;39.80;;;;;;5013550;28;20403;-65
2023/10/24 10:59:04;;;;;;;;;;;32.20;41.50;;;;;;5014247;28;20085;-64
2023/10/24 11:01:38;;;;;;;;;;;32.30;39.40;;;;;;5014102;28;19989;-61
2023/10/24 11:04:11;;;;;;;;;;;32.30;40.00;;;;;;5014045;28;19991;-63
2023/10/24 11:06:37;;;;;;;;;;;32.30;38.40;;;;;;5014013;28;19989;-64
2023/10/24 11:09:13;;;;;;;;;;;32.30;38.30;;;;;;5013964;28;20432;-62
2023/10/24 11:11:39;;;;;;;;;;;32.30;38.10;;;;;;5013724;28;20040;-64
2023/10/24 11:14:14;;;;;;;;;;;32.50;36.00;;;;;;5013852;28;20029;-60
2023/10/24 11:16:41;;;;;;;;;;;32.50;36.90;;;;;;5013705;28;19982;-63
2023/10/24 11:19:06;;;;;;;;;;;32.40;38.30;;;;;;5019234;28;20018;-60
2023/10/24 11:21:32;;;;;;;;;;;32.20;34.60;;;;;;5033728;28;19987;-61
2023/10/24 11:24:20;;;;;;;;;;;32.20;35.30;;;;;;4992637;28;20888;-65
2023/10/24 11:27:04;;;;;;;;;;;32.30;35.70;;;;;;5033554;28;20034;-64
2023/10/24 11:29:30;;;;;;;;;;;32.30;35.90;;;;;;5033755;28;19986;-59
2023/10/24 11:31:58;;;;;;;;;;;32.40;37.20;;;;;;5033174;28;20444;-61
2023/10/24 11:34:23;;;;;;;;;;;32.60;36.80;;;;;;5034735;28;20068;-62
2023/10/24 11:36:49;;;;;;;;;;;32.70;36.00;;;;;;5037619;28;20459;-62
2023/10/24 11:39:14;;;;;;;;;;;32.80;35.30;;;;;;5037472;28;19982;-62
2023/10/24 11:41:40;;;;;;;;;;;32.60;33.20;;;;;;5037691;28;19992;-65
2023/10/24 11:44:11;;;;;;;;;;;32.30;33.30;;;;;;5037745;28;20008;-61
2023/10/24 11:46:38;;;;;;;;;;;32.30;35.20;;;;;;5037427;28;20325;-61
2023/10/24 11:49:03;;;;;;;;;;;32.30;35.80;;;;;;5037640;28;19986;-64
2023/10/24 11:51:30;;;;;;;;;;;32.10;38.20;;;;;;5037287;28;20069;-60
2023/10/24 11:54:02;;;;;;;;;;;32.10;38.00;;;;;;5037249;28;19985;-61
2023/10/24 11:56:28;;;;;;;;;;;32.00;36.10;;;;;;5037197;28;19986;-64
2023/10/24 11:58:54;;;;;;;;;;;31.80;40.00;;;;;;5037231;28;20444;-65
2023/10/24 12:01:22;;;;;;;;;;;31.40;40.70;;;;;;5036910;28;19989;-66
2023/10/24 12:03:47;;;;;;;;;;;31.50;40.20;;;;;;5019313;28;20403;-64
2023/10/24 12:06:17;;;;;;;;;;;31.60;41.30;;;;;;5037006;28;19993;-66
2023/10/24 12:08:43;;;;;;;;;;;31.90;41.40;;;;;;5036919;28;19986;-61
2023/10/24 12:11:09;;;;;;;;;;;32.10;39.70;;;;;;5037025;28;19982;-60
2023/10/24 12:13:34;;;;;;;;;;;32.30;38.40;;;;;;5036962;28;19997;-65
2023/10/24 12:16:00;;;;;;;;;;;32.60;36.50;;;;;;5036853;28;19986;-59
2023/10/24 12:18:26;;;;;;;;;;;32.70;37.60;;;;;;5036727;28;20028;-62
2023/10/24 12:20:52;;;;;;;;;;;32.70;38.20;;;;;;5036894;28;20110;-61
2023/10/24 12:23:18;;;;;;;;;;;32.60;39.10;;;;;;5036532;28;20014;-61
2023/10/24 12:25:44;;;;;;;;;;;32.50;34.80;;;;;;5036659;28;19990;-63
2023/10/24 12:28:09;;;;;;;;;;;32.30;37.30;;;;;;5036838;28;19982;-61
2023/10/24 12:30:35;;;;;;;;;;;32.00;38.10;;;;;;5036317;28;19986;-63
2023/10/24 12:33:00;;;;;;;;;;;31.80;39.50;;;;;;5036469;28;19986;-62
2023/10/24 12:35:26;;;;;;;;;;;31.50;40.30;;;;;;5036585;28;19982;-59
2023/10/24 12:37:52;;;;;;;;;;;31.30;42.30;;;;;;5036781;28;19992;-61
2023/10/24 12:40:18;;;;;;;;;;;30.80;41.80;;;;;;5036332;28;20392;-62
2023/10/24 12:42:44;;;;;;;;;;;30.60;42.10;;;;;;5036350;28;20015;-59
2023/10/24 12:45:10;;;;;;;;;;;30.30;39.60;;;;;;5036114;28;19982;-62
2023/10/24 12:47:35;;;;;;;;;;;30.10;44.70;;;;;;5036200;28;20007;-64
2023/10/24 12:50:01;;;;;;;;;;;29.90;45.00;;;;;;5036531;28;20021;-61
2023/10/24 12:52:26;;;;;;;;;;;29.60;45.00;;;;;;5036131;28;20145;-61
2023/10/24 12:54:52;;;;;;;;;;;29.30;44.80;;;;;;5036314;28;19986;-62
2023/10/24 12:57:18;;;;;;;;;;;29.10;44.60;;;;;;5036139;28;19986;-59
2023/10/24 12:59:44;;;;;;;;;;;29.10;46.90;;;;;;5035977;28;20384;-59
2023/10/24 13:02:10;;;;;;;;;;;29.20;49.30;;;;;;5036015;28;20006;-63
2023/10/24 13:04:35;;;;;;;;;;;29.20;46.50;;;;;;5036088;28;19992;-66
2023/10/24 13:07:04;;;;;;;;;;;29.30;47.20;;;;;;5035947;28;19982;-61
2023/10/24 13:09:32;;;;;;;;;;;29.50;47.80;;;;;;5036150;28;19993;-62
2023/10/24 13:11:58;;;;;;;;;;;29.40;47.00;;;;;;5035769;28;19993;-59
2023/10/24 13:14:24;;;;;;;;;;;29.10;45.80;;;;;;5035562;28;20025;-63
2023/10/24 13:16:50;;;;;;;;;;;28.70;47.90;;;;;;5035616;28;20029;-62
2023/10/24 13:19:15;;;;;;;;;;;28.30;46.50;;;;;;5035533;28;20024;-62
2023/10/24 13:21:41;;;;;;;;;;;28.10;48.10;;;;;;5035801;28;20095;-59
2023/10/24 13:24:06;;;;;;;;;;;28.00;48.90;;;;;;5035475;28;20025;-63
2023/10/24 13:26:33;;;;;;;;;;;27.90;48.80;;;;;;5035461;28;19982;-62
2023/10/24 13:28:59;;;;;;;;;;;27.80;48.60;;;;;;5035619;28;20379;-62
2023/10/24 13:31:24;;;;;;;;;;;27.80;47.00;;;;;;5035801;28;20039;-64
2023/10/24 13:33:50;;;;;;;;;;;27.90;48.00;;;;;;5035305;28;20515;-60
2023/10/24 13:36:16;;;;;;;;;;;27.90;48.60;;;;;;5035533;28;20016;-61
2023/10/24 13:38:41;;;;;;;;;;;27.90;48.70;;;;;;5035455;28;20181;-64
2023/10/24 13:41:07;;;;;;;;;;;27.90;46.60;;;;;;5035113;28;20005;-62
2023/10/24 13:43:33;;;;;;;;;;;27.80;47.80;;;;;;5034926;28;20509;-62
2023/10/24 13:45:59;;;;;;;;;;;27.70;48.40;;;;;;5035670;28;19986;-62
2023/10/24 13:48:24;;;;;;;;;;;27.40;50.70;;;;;;5035158;28;20440;-60
2023/10/24 13:50:50;;;;;;;;;;;27.20;51.30;;;;;;5035104;28;20448;-63
2023/10/24 13:53:15;;;;;;;;;;;27.10;50.10;;;;;;5035323;28;20432;-63
2023/10/24 13:55:41;;;;;;;;;;;26.70;50.90;;;;;;5035037;28;20109;-64
2023/10/24 13:58:07;;;;;;;;;;;26.50;52.30;;;;;;5034343;28;20012;-61
2023/10/24 14:00:33;;;;;;;;;;;26.30;51.20;;;;;;5035065;28;20036;-61
2023/10/24 14:03:00;;;;;;;;;;;26.10;52.90;;;;;;5034729;28;20053;-62
2023/10/24 14:05:25;;;;;;;;;;;26.00;52.80;;;;;;5034781;28;20379;-63
2023/10/24 14:07:52;;;;;;;;;;;26.00;54.20;;;;;;5034767;28;19982;-63
2023/10/24 14:10:18;;;;;;;;;;;26.00;55.20;;;;;;5035000;28;20036;-63